sensor_id;sensor_type;location;lat;lon;timestamp;pressure;altitude;pressure_sealevel;temperature
19948;BMP180;10135;50.702;7.276;2023-04-06T05:01:25;99550.00;;;7.60
19948;BMP180;10135;50.702;7.276;2023-04-06T05:03:26;99549.00;;;7.50
19948;BMP180;10135;50.702;7.276;2023-04-06T05:05:27;99556.00;;;7.50
19948;BMP180;10135;50.702;7.276;2023-04-06T05:07:27;99551.00;;;7.50
19948;BMP180;10135;50.702;7.276;2023-04-06T05:09:29;99555.00;;;7.60
19948;BMP180;10135;50.702;7.276;2023-04-06T05:11:31;99554.00;;;7.60
19948;BMP180;10135;50.702;7.276;2023-04-06T05:13:32;99553.00;;;7.60
19948;BMP180;10135;50.702;7.276;2023-04-06T05:15:33;99554.00;;;7.60
19948;BMP180;10135;50.702;7.276;2023-04-06T05:17:38;99563.00;;;7.60
19948;BMP180;10135;50.702;7.276;2023-04-06T05:19:39;99555.00;;;7.60
19948;BMP180;10135;50.702;7.276;2023-04-06T05:21:39;99560.00;;;7.60
19948;BMP180;10135;50.702;7.276;2023-04-06T05:23:40;99560.00;;;7.60
19948;BMP180;10135;50.702;7.276;2023-04-06T05:25:41;99561.00;;;7.60
19948;BMP180;10135;50.702;7.276;2023-04-06T05:27:41;99564.00;;;7.60
19948;BMP180;10135;50.702;7.276;2023-04-06T05:29:42;99565.00;;;7.70
19948;BMP180;10135;50.702;7.276;2023-04-06T05:31:42;99562.00;;;7.70
19948;BMP180;10135;50.702;7.276;2023-04-06T05:33:43;99556.00;;;7.70
19948;BMP180;10135;50.702;7.276;2023-04-06T05:35:44;99555.00;;;7.80
19948;BMP180;10135;50.702;7.276;2023-04-06T05:37:45;99557.00;;;7.80
19948;BMP180;10135;50.702;7.276;2023-04-06T05:39:46;99557.00;;;7.80
19948;BMP180;10135;50.702;7.276;2023-04-06T05:41:46;99557.00;;;7.80
19948;BMP180;10135;50.702;7.276;2023-04-06T05:43:47;99565.00;;;7.90
19948;BMP180;10135;50.702;7.276;2023-04-06T05:45:48;99556.00;;;7.90
19948;BMP180;10135;50.702;7.276;2023-04-06T05:47:48;99557.00;;;8.00
19948;BMP180;10135;50.702;7.276;2023-04-06T05:49:49;99561.00;;;8.00
19948;BMP180;10135;50.702;7.276;2023-04-06T05:51:49;99554.00;;;8.00
19948;BMP180;10135;50.702;7.276;2023-04-06T05:53:50;99556.00;;;8.10
19948;BMP180;10135;50.702;7.276;2023-04-06T05:55:51;99554.00;;;8.10
19948;BMP180;10135;50.702;7.276;2023-04-06T05:57:51;99553.00;;;8.20
19948;BMP180;10135;50.702;7.276;2023-04-06T05:59:52;99560.00;;;8.30
19948;BMP180;10135;50.702;7.276;2023-04-06T06:01:53;99555.00;;;8.40
19948;BMP180;10135;50.702;7.276;2023-04-06T06:03:53;99562.00;;;8.50
19948;BMP180;10135;50.702;7.276;2023-04-06T06:05:59;99567.00;;;8.70
19948;BMP180;10135;50.702;7.276;2023-04-06T06:08:00;99554.00;;;9.00
19948;BMP180;10135;50.702;7.276;2023-04-06T06:10:03;99555.00;;;9.40
19948;BMP180;10135;50.702;7.276;2023-04-06T06:12:03;99564.00;;;9.80
19948;BMP180;10135;50.702;7.276;2023-04-06T06:14:04;99560.00;;;10.30
19948;BMP180;10135;50.702;7.276;2023-04-06T06:16:05;99552.00;;;10.80
19948;BMP180;10135;50.702;7.276;2023-04-06T06:18:06;99557.00;;;11.20
19948;BMP180;10135;50.702;7.276;2023-04-06T06:20:07;99552.00;;;11.70
19948;BMP180;10135;50.702;7.276;2023-04-06T06:22:08;99542.00;;;12.20
19948;BMP180;10135;50.702;7.276;2023-04-06T06:24:09;99547.00;;;12.80
19948;BMP180;10135;50.702;7.276;2023-04-06T06:26:10;99538.00;;;13.30
19948;BMP180;10135;50.702;7.276;2023-04-06T06:28:11;99543.00;;;13.80
19948;BMP180;10135;50.702;7.276;2023-04-06T06:30:12;99551.00;;;14.30
19948;BMP180;10135;50.702;7.276;2023-04-06T06:32:13;99538.00;;;14.70
19948;BMP180;10135;50.702;7.276;2023-04-06T06:34:15;99546.00;;;15.10
19948;BMP180;10135;50.702;7.276;2023-04-06T06:36:16;99546.00;;;15.40
19948;BMP180;10135;50.702;7.276;2023-04-06T06:38:17;99543.00;;;15.60
19948;BMP180;10135;50.702;7.276;2023-04-06T06:40:18;99548.00;;;15.80
19948;BMP180;10135;50.702;7.276;2023-04-06T06:42:20;99542.00;;;15.90
19948;BMP180;10135;50.702;7.276;2023-04-06T06:44:21;99542.00;;;16.00
19948;BMP180;10135;50.702;7.276;2023-04-06T06:46:22;99538.00;;;16.10
19948;BMP180;10135;50.702;7.276;2023-04-06T06:48:22;99540.00;;;16.30
19948;BMP180;10135;50.702;7.276;2023-04-06T06:50:23;99536.00;;;16.40
19948;BMP180;10135;50.702;7.276;2023-04-06T06:52:24;99538.00;;;16.50
19948;BMP180;10135;50.702;7.276;2023-04-06T06:54:24;99535.00;;;16.60
19948;BMP180;10135;50.702;7.276;2023-04-06T06:56:25;99535.00;;;16.60
19948;BMP180;10135;50.702;7.276;2023-04-06T06:58:27;99533.00;;;16.50
19948;BMP180;10135;50.702;7.276;2023-04-06T07:00:27;99531.00;;;16.50
19948;BMP180;10135;50.702;7.276;2023-04-06T07:02:28;99536.00;;;16.40
19948;BMP180;10135;50.702;7.276;2023-04-06T07:04:28;99537.00;;;16.20
19948;BMP180;10135;50.702;7.276;2023-04-06T07:06:29;99536.00;;;16.10
19948;BMP180;10135;50.702;7.276;2023-04-06T07:08:30;99540.00;;;16.00
19948;BMP180;10135;50.702;7.276;2023-04-06T07:10:30;99537.00;;;15.90
19948;BMP180;10135;50.702;7.276;2023-04-06T07:12:31;99534.00;;;15.80
19948;BMP180;10135;50.702;7.276;2023-04-06T07:14:32;99536.00;;;15.80
19948;BMP180;10135;50.702;7.276;2023-04-06T07:16:32;99533.00;;;15.80
19948;BMP180;10135;50.702;7.276;2023-04-06T07:18:33;99533.00;;;15.80
19948;BMP180;10135;50.702;7.276;2023-04-06T07:20:34;99532.00;;;15.90
19948;BMP180;10135;50.702;7.276;2023-04-06T07:22:34;99535.00;;;16.10
19948;BMP180;10135;50.702;7.276;2023-04-06T07:24:35;99528.00;;;16.20
19948;BMP180;10135;50.702;7.276;2023-04-06T07:26:36;99531.00;;;16.20
19948;BMP180;10135;50.702;7.276;2023-04-06T07:28:37;99532.00;;;16.20
19948;BMP180;10135;50.702;7.276;2023-04-06T07:30:38;99536.00;;;16.20
19948;BMP180;10135;50.702;7.276;2023-04-06T07:32:39;99536.00;;;16.20
19948;BMP180;10135;50.702;7.276;2023-04-06T07:34:40;99534.00;;;16.30
19948;BMP180;10135;50.702;7.276;2023-04-06T07:36:41;99535.00;;;16.40
19948;BMP180;10135;50.702;7.276;2023-04-06T07:38:41;99528.00;;;16.60
19948;BMP180;10135;50.702;7.276;2023-04-06T07:40:42;99522.00;;;16.70
19948;BMP180;10135;50.702;7.276;2023-04-06T07:42:42;99523.00;;;16.70
19948;BMP180;10135;50.702;7.276;2023-04-06T07:44:43;99524.00;;;16.70
19948;BMP180;10135;50.702;7.276;2023-04-06T07:46:44;99520.00;;;16.80
19948;BMP180;10135;50.702;7.276;2023-04-06T07:48:44;99521.00;;;16.90
19948;BMP180;10135;50.702;7.276;2023-04-06T07:50:45;99518.00;;;17.10
19948;BMP180;10135;50.702;7.276;2023-04-06T07:52:46;99522.00;;;17.20
19948;BMP180;10135;50.702;7.276;2023-04-06T07:54:46;99521.00;;;17.40
19948;BMP180;10135;50.702;7.276;2023-04-06T07:56:48;99524.00;;;17.50
19948;BMP180;10135;50.702;7.276;2023-04-06T07:58:49;99520.00;;;17.60
19948;BMP180;10135;50.702;7.276;2023-04-06T08:00:50;99520.00;;;17.60
19948;BMP180;10135;50.702;7.276;2023-04-06T08:02:50;99520.00;;;17.60
19948;BMP180;10135;50.702;7.276;2023-04-06T08:04:51;99512.00;;;17.60
19948;BMP180;10135;50.702;7.276;2023-04-06T08:06:52;99509.00;;;17.70
19948;BMP180;10135;50.702;7.276;2023-04-06T08:08:52;99515.00;;;17.80
19948;BMP180;10135;50.702;7.276;2023-04-06T08:10:53;99520.00;;;17.90
19948;BMP180;10135;50.702;7.276;2023-04-06T08:12:54;99515.00;;;18.10
19948;BMP180;10135;50.702;7.276;2023-04-06T08:14:54;99515.00;;;18.10
19948;BMP180;10135;50.702;7.276;2023-04-06T08:16:55;99514.00;;;18.10
19948;BMP180;10135;50.702;7.276;2023-04-06T08:18:56;99520.00;;;18.10
19948;BMP180;10135;50.702;7.276;2023-04-06T08:20:56;99514.00;;;18.00
19948;BMP180;10135;50.702;7.276;2023-04-06T08:22:57;99519.00;;;18.00
19948;BMP180;10135;50.702;7.276;2023-04-06T08:24:58;99516.00;;;18.00
19948;BMP180;10135;50.702;7.276;2023-04-06T08:26:58;99522.00;;;18.00
19948;BMP180;10135;50.702;7.276;2023-04-06T08:28:59;99514.00;;;18.00
19948;BMP180;10135;50.702;7.276;2023-04-06T08:31:06;99518.00;;;17.90
19948;BMP180;10135;50.702;7.276;2023-04-06T08:33:06;99514.00;;;17.90
19948;BMP180;10135;50.702;7.276;2023-04-06T08:35:08;99520.00;;;17.80
19948;BMP180;10135;50.702;7.276;2023-04-06T08:37:09;99516.00;;;17.70
19948;BMP180;10135;50.702;7.276;2023-04-06T08:39:10;99513.00;;;17.70
19948;BMP180;10135;50.702;7.276;2023-04-06T08:41:12;99518.00;;;17.60
19948;BMP180;10135;50.702;7.276;2023-04-06T08:43:14;99514.00;;;17.70
19948;BMP180;10135;50.702;7.276;2023-04-06T08:45:16;99512.00;;;17.70
19948;BMP180;10135;50.702;7.276;2023-04-06T08:47:17;99515.00;;;17.70
19948;BMP180;10135;50.702;7.276;2023-04-06T08:49:18;99522.00;;;17.80
19948;BMP180;10135;50.702;7.276;2023-04-06T08:51:19;99517.00;;;17.90
19948;BMP180;10135;50.702;7.276;2023-04-06T08:53:20;99513.00;;;18.00
19948;BMP180;10135;50.702;7.276;2023-04-06T08:55:22;99513.00;;;18.00
19948;BMP180;10135;50.702;7.276;2023-04-06T08:57:23;99507.00;;;18.10
19948;BMP180;10135;50.702;7.276;2023-04-06T08:59:25;99517.00;;;18.10
19948;BMP180;10135;50.702;7.276;2023-04-06T09:01:27;99514.00;;;18.20
19948;BMP180;10135;50.702;7.276;2023-04-06T09:03:31;99511.00;;;18.20
19948;BMP180;10135;50.702;7.276;2023-04-06T09:05:32;99516.00;;;18.10
19948;BMP180;10135;50.702;7.276;2023-04-06T09:07:32;99512.00;;;18.10
19948;BMP180;10135;50.702;7.276;2023-04-06T09:09:33;99508.00;;;18.10
19948;BMP180;10135;50.702;7.276;2023-04-06T09:11:48;99511.00;;;18.00
19948;BMP180;10135;50.702;7.276;2023-04-06T09:13:55;99504.00;;;18.00
19948;BMP180;10135;50.702;7.276;2023-04-06T09:16:04;99509.00;;;18.00
19948;BMP180;10135;50.702;7.276;2023-04-06T09:18:06;99514.00;;;18.00
19948;BMP180;10135;50.702;7.276;2023-04-06T09:20:08;99512.00;;;17.90
19948;BMP180;10135;50.702;7.276;2023-04-06T09:22:09;99514.00;;;17.80
19948;BMP180;10135;50.702;7.276;2023-04-06T09:24:10;99517.00;;;17.80
19948;BMP180;10135;50.702;7.276;2023-04-06T09:26:16;99516.00;;;17.70
19948;BMP180;10135;50.702;7.276;2023-04-06T09:28:17;99514.00;;;17.70
19948;BMP180;10135;50.702;7.276;2023-04-06T09:30:18;99518.00;;;17.70
19948;BMP180;10135;50.702;7.276;2023-04-06T09:32:19;99514.00;;;17.70
19948;BMP180;10135;50.702;7.276;2023-04-06T09:34:22;99509.00;;;17.70
19948;BMP180;10135;50.702;7.276;2023-04-06T09:36:35;99503.00;;;17.70
19948;BMP180;10135;50.702;7.276;2023-04-06T09:38:56;99511.00;;;17.70
19948;BMP180;10135;50.702;7.276;2023-04-06T09:40:56;99505.00;;;17.70
19948;BMP180;10135;50.702;7.276;2023-04-06T09:42:57;99504.00;;;17.80
19948;BMP180;10135;50.702;7.276;2023-04-06T09:44:59;99505.00;;;17.80
19948;BMP180;10135;50.702;7.276;2023-04-06T09:47:05;99508.00;;;17.80
19948;BMP180;10135;50.702;7.276;2023-04-06T09:49:08;99505.00;;;17.90
19948;BMP180;10135;50.702;7.276;2023-04-06T09:51:12;99505.00;;;17.90
19948;BMP180;10135;50.702;7.276;2023-04-06T09:53:14;99504.00;;;18.00
19948;BMP180;10135;50.702;7.276;2023-04-06T09:55:29;99497.00;;;18.00
19948;BMP180;10135;50.702;7.276;2023-04-06T09:57:39;99501.00;;;18.00
19948;BMP180;10135;50.702;7.276;2023-04-06T10:00:04;99496.00;;;17.90
19948;BMP180;10135;50.702;7.276;2023-04-06T10:02:40;99497.00;;;17.90
19948;BMP180;10135;50.702;7.276;2023-04-06T10:05:20;99494.00;;;17.80
19948;BMP180;10135;50.702;7.276;2023-04-06T10:07:23;99489.00;;;17.80
19948;BMP180;10135;50.702;7.276;2023-04-06T10:09:28;99496.00;;;17.80
19948;BMP180;10135;50.702;7.276;2023-04-06T10:11:35;99494.00;;;17.80
19948;BMP180;10135;50.702;7.276;2023-04-06T10:13:37;99488.00;;;17.80
19948;BMP180;10135;50.702;7.276;2023-04-06T10:15:42;99493.00;;;17.80
19948;BMP180;10135;50.702;7.276;2023-04-06T10:17:43;99492.00;;;17.90
19948;BMP180;10135;50.702;7.276;2023-04-06T10:19:53;99484.00;;;17.90
19948;BMP180;10135;50.702;7.276;2023-04-06T10:21:58;99490.00;;;18.00
19948;BMP180;10135;50.702;7.276;2023-04-06T10:24:02;99487.00;;;18.00
19948;BMP180;10135;50.702;7.276;2023-04-06T10:26:03;99492.00;;;18.10
19948;BMP180;10135;50.702;7.276;2023-04-06T10:28:11;99489.00;;;18.10
19948;BMP180;10135;50.702;7.276;2023-04-06T10:30:15;99493.00;;;18.20
19948;BMP180;10135;50.702;7.276;2023-04-06T10:32:17;99493.00;;;18.20
19948;BMP180;10135;50.702;7.276;2023-04-06T10:34:18;99497.00;;;18.20
19948;BMP180;10135;50.702;7.276;2023-04-06T10:36:25;99491.00;;;18.20
19948;BMP180;10135;50.702;7.276;2023-04-06T10:38:34;99497.00;;;18.20
19948;BMP180;10135;50.702;7.276;2023-04-06T10:40:37;99499.00;;;18.20
19948;BMP180;10135;50.702;7.276;2023-04-06T10:42:38;99489.00;;;18.20
19948;BMP180;10135;50.702;7.276;2023-04-06T10:44:43;99486.00;;;18.10
19948;BMP180;10135;50.702;7.276;2023-04-06T10:46:57;99494.00;;;18.10
19948;BMP180;10135;50.702;7.276;2023-04-06T10:49:11;99493.00;;;18.10
19948;BMP180;10135;50.702;7.276;2023-04-06T10:51:15;99485.00;;;18.20
19948;BMP180;10135;50.702;7.276;2023-04-06T10:53:27;99487.00;;;18.20
19948;BMP180;10135;50.702;7.276;2023-04-06T10:55:29;99483.00;;;18.20
19948;BMP180;10135;50.702;7.276;2023-04-06T10:57:31;99480.00;;;18.30
19948;BMP180;10135;50.702;7.276;2023-04-06T10:59:33;99482.00;;;18.30
19948;BMP180;10135;50.702;7.276;2023-04-06T11:01:34;99480.00;;;18.30
19948;BMP180;10135;50.702;7.276;2023-04-06T11:03:46;99473.00;;;18.40
19948;BMP180;10135;50.702;7.276;2023-04-06T11:05:50;99476.00;;;18.40
19948;BMP180;10135;50.702;7.276;2023-04-06T11:07:51;99481.00;;;18.40
19948;BMP180;10135;50.702;7.276;2023-04-06T11:09:51;99475.00;;;18.50
19948;BMP180;10135;50.702;7.276;2023-04-06T11:11:53;99476.00;;;18.50
19948;BMP180;10135;50.702;7.276;2023-04-06T11:13:57;99478.00;;;18.50
19948;BMP180;10135;50.702;7.276;2023-04-06T11:15:58;99472.00;;;18.40
19948;BMP180;10135;50.702;7.276;2023-04-06T11:18:04;99481.00;;;18.40
19948;BMP180;10135;50.702;7.276;2023-04-06T11:20:11;99475.00;;;18.40
19948;BMP180;10135;50.702;7.276;2023-04-06T11:22:11;99475.00;;;18.40
19948;BMP180;10135;50.702;7.276;2023-04-06T11:24:23;99475.00;;;18.30
19948;BMP180;10135;50.702;7.276;2023-04-06T11:26:24;99468.00;;;18.30
19948;BMP180;10135;50.702;7.276;2023-04-06T11:28:25;99468.00;;;18.30
19948;BMP180;10135;50.702;7.276;2023-04-06T11:30:26;99462.00;;;18.30
19948;BMP180;10135;50.702;7.276;2023-04-06T11:32:27;99462.00;;;18.30
19948;BMP180;10135;50.702;7.276;2023-04-06T11:34:30;99457.00;;;18.30
19948;BMP180;10135;50.702;7.276;2023-04-06T11:36:30;99467.00;;;18.30
19948;BMP180;10135;50.702;7.276;2023-04-06T11:38:31;99465.00;;;18.20
19948;BMP180;10135;50.702;7.276;2023-04-06T11:40:32;99462.00;;;18.20
19948;BMP180;10135;50.702;7.276;2023-04-06T11:42:34;99465.00;;;18.20
19948;BMP180;10135;50.702;7.276;2023-04-06T11:44:37;99469.00;;;18.20
19948;BMP180;10135;50.702;7.276;2023-04-06T11:46:52;99467.00;;;18.10
19948;BMP180;10135;50.702;7.276;2023-04-06T11:49:01;99462.00;;;18.10
19948;BMP180;10135;50.702;7.276;2023-04-06T11:51:02;99458.00;;;18.10
19948;BMP180;10135;50.702;7.276;2023-04-06T11:53:05;99456.00;;;18.20
19948;BMP180;10135;50.702;7.276;2023-04-06T11:55:17;99463.00;;;18.10
19948;BMP180;10135;50.702;7.276;2023-04-06T11:57:21;99457.00;;;18.10
19948;BMP180;10135;50.702;7.276;2023-04-06T11:59:24;99458.00;;;18.10
19948;BMP180;10135;50.702;7.276;2023-04-06T12:01:26;99456.00;;;18.10
19948;BMP180;10135;50.702;7.276;2023-04-06T12:03:26;99452.00;;;18.10
19948;BMP180;10135;50.702;7.276;2023-04-06T12:05:27;99457.00;;;18.10
19948;BMP180;10135;50.702;7.276;2023-04-06T12:07:29;99452.00;;;18.10
19948;BMP180;10135;50.702;7.276;2023-04-06T12:09:31;99450.00;;;18.10
19948;BMP180;10135;50.702;7.276;2023-04-06T12:11:32;99457.00;;;18.10
19948;BMP180;10135;50.702;7.276;2023-04-06T12:13:32;99453.00;;;18.10
19948;BMP180;10135;50.702;7.276;2023-04-06T12:15:33;99453.00;;;18.20
19948;BMP180;10135;50.702;7.276;2023-04-06T12:17:34;99454.00;;;18.20
19948;BMP180;10135;50.702;7.276;2023-04-06T12:19:35;99443.00;;;18.20
19948;BMP180;10135;50.702;7.276;2023-04-06T12:21:36;99452.00;;;18.20
19948;BMP180;10135;50.702;7.276;2023-04-06T12:23:37;99449.00;;;18.20
19948;BMP180;10135;50.702;7.276;2023-04-06T12:25:40;99438.00;;;18.20
19948;BMP180;10135;50.702;7.276;2023-04-06T12:27:41;99438.00;;;18.30
19948;BMP180;10135;50.702;7.276;2023-04-06T12:29:42;99440.00;;;18.20
19948;BMP180;10135;50.702;7.276;2023-04-06T12:31:42;99444.00;;;18.20
19948;BMP180;10135;50.702;7.276;2023-04-06T12:33:49;99438.00;;;18.20
19948;BMP180;10135;50.702;7.276;2023-04-06T12:35:50;99440.00;;;18.20
19948;BMP180;10135;50.702;7.276;2023-04-06T12:37:51;99439.00;;;18.20
19948;BMP180;10135;50.702;7.276;2023-04-06T12:39:52;99445.00;;;18.20
19948;BMP180;10135;50.702;7.276;2023-04-06T12:41:53;99442.00;;;18.20
19948;BMP180;10135;50.702;7.276;2023-04-06T12:43:54;99438.00;;;18.20
19948;BMP180;10135;50.702;7.276;2023-04-06T12:45:54;99439.00;;;18.20
19948;BMP180;10135;50.702;7.276;2023-04-06T12:47:58;99445.00;;;18.20
19948;BMP180;10135;50.702;7.276;2023-04-06T12:49:58;99444.00;;;18.10
19948;BMP180;10135;50.702;7.276;2023-04-06T12:51:59;99439.00;;;18.10
19948;BMP180;10135;50.702;7.276;2023-04-06T12:54:00;99437.00;;;18.10
19948;BMP180;10135;50.702;7.276;2023-04-06T12:56:02;99443.00;;;18.10
19948;BMP180;10135;50.702;7.276;2023-04-06T12:58:03;99434.00;;;18.00
19948;BMP180;10135;50.702;7.276;2023-04-06T13:00:05;99431.00;;;18.10
19948;BMP180;10135;50.702;7.276;2023-04-06T13:02:05;99431.00;;;18.10
19948;BMP180;10135;50.702;7.276;2023-04-06T13:04:06;99440.00;;;18.10
19948;BMP180;10135;50.702;7.276;2023-04-06T13:06:08;99437.00;;;18.10
19948;BMP180;10135;50.702;7.276;2023-04-06T13:08:08;99427.00;;;18.10
19948;BMP180;10135;50.702;7.276;2023-04-06T13:10:09;99430.00;;;18.10
19948;BMP180;10135;50.702;7.276;2023-04-06T13:12:10;99429.00;;;18.00
19948;BMP180;10135;50.702;7.276;2023-04-06T13:14:10;99432.00;;;18.00
19948;BMP180;10135;50.702;7.276;2023-04-06T13:16:11;99423.00;;;18.00
19948;BMP180;10135;50.702;7.276;2023-04-06T13:18:12;99422.00;;;17.90
19948;BMP180;10135;50.702;7.276;2023-04-06T13:20:12;99430.00;;;17.90
19948;BMP180;10135;50.702;7.276;2023-04-06T13:22:13;99431.00;;;17.90
19948;BMP180;10135;50.702;7.276;2023-04-06T13:24:14;99431.00;;;17.80
19948;BMP180;10135;50.702;7.276;2023-04-06T13:26:15;99434.00;;;17.80
19948;BMP180;10135;50.702;7.276;2023-04-06T13:28:17;99438.00;;;17.80
19948;BMP180;10135;50.702;7.276;2023-04-06T13:30:17;99427.00;;;17.70
19948;BMP180;10135;50.702;7.276;2023-04-06T13:32:18;99431.00;;;17.70
19948;BMP180;10135;50.702;7.276;2023-04-06T13:34:19;99430.00;;;17.70
19948;BMP180;10135;50.702;7.276;2023-04-06T13:36:19;99427.00;;;17.60
19948;BMP180;10135;50.702;7.276;2023-04-06T13:38:20;99429.00;;;17.60
19948;BMP180;10135;50.702;7.276;2023-04-06T13:40:21;99442.00;;;17.50
19948;BMP180;10135;50.702;7.276;2023-04-06T13:42:21;99441.00;;;17.50
19948;BMP180;10135;50.702;7.276;2023-04-06T13:44:22;99433.00;;;17.50
19948;BMP180;10135;50.702;7.276;2023-04-06T13:46:23;99440.00;;;17.40
19948;BMP180;10135;50.702;7.276;2023-04-06T13:48:24;99437.00;;;17.40
19948;BMP180;10135;50.702;7.276;2023-04-06T13:50:26;99435.00;;;17.40
19948;BMP180;10135;50.702;7.276;2023-04-06T13:52:27;99429.00;;;17.30
19948;BMP180;10135;50.702;7.276;2023-04-06T13:54:28;99428.00;;;17.30
19948;BMP180;10135;50.702;7.276;2023-04-06T13:56:28;99434.00;;;17.30
19948;BMP180;10135;50.702;7.276;2023-04-06T13:58:29;99431.00;;;17.20
19948;BMP180;10135;50.702;7.276;2023-04-06T14:00:30;99452.00;;;17.20
19948;BMP180;10135;50.702;7.276;2023-04-06T14:02:31;99441.00;;;17.10
19948;BMP180;10135;50.702;7.276;2023-04-06T14:04:32;99444.00;;;17.10
19948;BMP180;10135;50.702;7.276;2023-04-06T14:06:34;99440.00;;;17.00
19948;BMP180;10135;50.702;7.276;2023-04-06T14:08:34;99445.00;;;17.00
19948;BMP180;10135;50.702;7.276;2023-04-06T14:10:39;99445.00;;;17.00
19948;BMP180;10135;50.702;7.276;2023-04-06T14:12:43;99439.00;;;17.00
19948;BMP180;10135;50.702;7.276;2023-04-06T14:14:45;99445.00;;;16.90
19948;BMP180;10135;50.702;7.276;2023-04-06T14:16:45;99448.00;;;16.90
19948;BMP180;10135;50.702;7.276;2023-04-06T14:18:46;99454.00;;;16.90
19948;BMP180;10135;50.702;7.276;2023-04-06T14:20:57;99461.00;;;16.80
19948;BMP180;10135;50.702;7.276;2023-04-06T14:23:00;99455.00;;;16.80
19948;BMP180;10135;50.702;7.276;2023-04-06T14:25:01;99458.00;;;16.70
19948;BMP180;10135;50.702;7.276;2023-04-06T14:27:02;99457.00;;;16.70
19948;BMP180;10135;50.702;7.276;2023-04-06T14:29:05;99461.00;;;16.70
19948;BMP180;10135;50.702;7.276;2023-04-06T14:31:13;99457.00;;;16.60
19948;BMP180;10135;50.702;7.276;2023-04-06T14:33:15;99458.00;;;16.60
19948;BMP180;10135;50.702;7.276;2023-04-06T14:35:16;99466.00;;;16.60
19948;BMP180;10135;50.702;7.276;2023-04-06T14:37:16;99459.00;;;16.50
19948;BMP180;10135;50.702;7.276;2023-04-06T14:39:18;99455.00;;;16.50
19948;BMP180;10135;50.702;7.276;2023-04-06T14:41:20;99463.00;;;16.40
19948;BMP180;10135;50.702;7.276;2023-04-06T14:43:21;99464.00;;;16.40
19948;BMP180;10135;50.702;7.276;2023-04-06T14:45:22;99453.00;;;16.40
19948;BMP180;10135;50.702;7.276;2023-04-06T14:47:23;99457.00;;;16.40
19948;BMP180;10135;50.702;7.276;2023-04-06T14:49:23;99458.00;;;16.40
19948;BMP180;10135;50.702;7.276;2023-04-06T14:51:25;99462.00;;;16.40
19948;BMP180;10135;50.702;7.276;2023-04-06T14:53:28;99469.00;;;16.40
19948;BMP180;10135;50.702;7.276;2023-04-06T14:55:29;99457.00;;;16.30
19948;BMP180;10135;50.702;7.276;2023-04-06T14:57:30;99460.00;;;16.30
19948;BMP180;10135;50.702;7.276;2023-04-06T14:59:31;99452.00;;;16.20
19948;BMP180;10135;50.702;7.276;2023-04-06T15:01:37;99456.00;;;16.20
19948;BMP180;10135;50.702;7.276;2023-04-06T15:03:37;99457.00;;;16.20
19948;BMP180;10135;50.702;7.276;2023-04-06T15:05:38;99457.00;;;16.10
19948;BMP180;10135;50.702;7.276;2023-04-06T15:07:38;99459.00;;;16.10
19948;BMP180;10135;50.702;7.276;2023-04-06T15:09:39;99452.00;;;16.00
19948;BMP180;10135;50.702;7.276;2023-04-06T15:11:40;99460.00;;;16.00
19948;BMP180;10135;50.702;7.276;2023-04-06T15:13:41;99454.00;;;15.90
19948;BMP180;10135;50.702;7.276;2023-04-06T15:15:42;99461.00;;;15.90
19948;BMP180;10135;50.702;7.276;2023-04-06T15:17:43;99465.00;;;15.80
19948;BMP180;10135;50.702;7.276;2023-04-06T15:19:43;99460.00;;;15.70
19948;BMP180;10135;50.702;7.276;2023-04-06T15:21:44;99458.00;;;15.70
19948;BMP180;10135;50.702;7.276;2023-04-06T15:23:45;99456.00;;;15.60
19948;BMP180;10135;50.702;7.276;2023-04-06T15:25:47;99459.00;;;15.60
19948;BMP180;10135;50.702;7.276;2023-04-06T15:27:47;99456.00;;;15.50
19948;BMP180;10135;50.702;7.276;2023-04-06T15:29:48;99450.00;;;15.50
19948;BMP180;10135;50.702;7.276;2023-04-06T15:31:48;99459.00;;;15.50
19948;BMP180;10135;50.702;7.276;2023-04-06T15:33:49;99462.00;;;15.40
19948;BMP180;10135;50.702;7.276;2023-04-06T15:35:50;99457.00;;;15.40
19948;BMP180;10135;50.702;7.276;2023-04-06T15:37:52;99447.00;;;15.40
19948;BMP180;10135;50.702;7.276;2023-04-06T15:39:52;99446.00;;;15.30
19948;BMP180;10135;50.702;7.276;2023-04-06T15:41:53;99448.00;;;15.30
19948;BMP180;10135;50.702;7.276;2023-04-06T15:43:54;99462.00;;;15.20
19948;BMP180;10135;50.702;7.276;2023-04-06T15:45:55;99450.00;;;15.20
19948;BMP180;10135;50.702;7.276;2023-04-06T15:47:56;99455.00;;;15.10
19948;BMP180;10135;50.702;7.276;2023-04-06T15:49:57;99449.00;;;15.10
19948;BMP180;10135;50.702;7.276;2023-04-06T15:51:57;99454.00;;;15.10
19948;BMP180;10135;50.702;7.276;2023-04-06T15:53:58;99449.00;;;15.10
19948;BMP180;10135;50.702;7.276;2023-04-06T15:56:04;99447.00;;;15.00
19948;BMP180;10135;50.702;7.276;2023-04-06T15:58:06;99446.00;;;15.00
19948;BMP180;10135;50.702;7.276;2023-04-06T16:00:07;99454.00;;;14.90
19948;BMP180;10135;50.702;7.276;2023-04-06T16:02:09;99447.00;;;14.90
19948;BMP180;10135;50.702;7.276;2023-04-06T16:04:09;99450.00;;;14.90
19948;BMP180;10135;50.702;7.276;2023-04-06T16:06:11;99451.00;;;14.80
19948;BMP180;10135;50.702;7.276;2023-04-06T16:08:12;99456.00;;;14.80
19948;BMP180;10135;50.702;7.276;2023-04-06T16:10:16;99451.00;;;14.70
19948;BMP180;10135;50.702;7.276;2023-04-06T16:12:17;99454.00;;;14.70
19948;BMP180;10135;50.702;7.276;2023-04-06T16:14:18;99455.00;;;14.60
19948;BMP180;10135;50.702;7.276;2023-04-06T16:16:19;99447.00;;;14.60
19948;BMP180;10135;50.702;7.276;2023-04-06T16:18:20;99458.00;;;14.50
19948;BMP180;10135;50.702;7.276;2023-04-06T16:20:21;99462.00;;;14.50
19948;BMP180;10135;50.702;7.276;2023-04-06T16:22:21;99454.00;;;14.50
19948;BMP180;10135;50.702;7.276;2023-04-06T16:24:22;99458.00;;;14.40
19948;BMP180;10135;50.702;7.276;2023-04-06T16:26:23;99455.00;;;14.40
19948;BMP180;10135;50.702;7.276;2023-04-06T16:28:23;99463.00;;;14.30
19948;BMP180;10135;50.702;7.276;2023-04-06T16:30:25;99464.00;;;14.30
19948;BMP180;10135;50.702;7.276;2023-04-06T16:32:26;99465.00;;;14.20
19948;BMP180;10135;50.702;7.276;2023-04-06T16:34:31;99466.00;;;14.20
19948;BMP180;10135;50.702;7.276;2023-04-06T16:36:32;99460.00;;;14.10
19948;BMP180;10135;50.702;7.276;2023-04-06T16:38:33;99463.00;;;14.10
19948;BMP180;10135;50.702;7.276;2023-04-06T16:40:35;99461.00;;;14.00
19948;BMP180;10135;50.702;7.276;2023-04-06T16:42:35;99464.00;;;13.90
19948;BMP180;10135;50.702;7.276;2023-04-06T16:44:36;99459.00;;;13.90